createdAt,value
2023-01-02T00:03:04.147Z,11.80
2023-01-02T00:13:05.866Z,12.70
2023-01-02T00:23:07.772Z,10.63
2023-01-02T00:33:09.400Z,12.80
2023-01-02T00:43:10.989Z,9.83
2023-01-02T00:53:12.599Z,14.83
2023-01-02T01:03:14.253Z,12.53
2023-01-02T01:13:15.882Z,13.90
2023-01-02T01:23:17.502Z,10.07
2023-01-02T01:33:19.098Z,14.30
2023-01-02T01:43:46.512Z,9.23
2023-01-02T01:53:53.518Z,9.87
2023-01-02T02:03:55.946Z,10.30
2023-01-02T02:13:59.671Z,11.53
2023-01-02T02:24:50.078Z,11.60
2023-01-02T02:35:23.186Z,11.20
2023-01-02T02:45:57.382Z,10.10
2023-01-02T02:56:02.223Z,10.57
2023-01-02T03:06:49.222Z,6.57
2023-01-02T03:16:59.992Z,8.47
2023-01-02T03:27:12.236Z,10.53
2023-01-02T03:37:20.430Z,7.13
2023-01-02T03:47:55.539Z,7.17
2023-01-02T03:58:03.241Z,9.03
2023-01-02T04:08:25.907Z,9.50
2023-01-02T04:18:31.266Z,11.13
2023-01-02T04:28:34.568Z,8.50
2023-01-02T04:38:36.297Z,7.73
2023-01-02T04:48:37.904Z,10.80
2023-01-02T04:58:40.406Z,12.20
2023-01-02T05:08:42.178Z,9.10
2023-01-02T05:18:43.825Z,12.03
2023-01-02T05:28:45.956Z,8.13
2023-01-02T05:38:47.638Z,11.33
2023-01-02T05:48:50.410Z,9.50
2023-01-02T05:58:52.151Z,12.73
2023-01-02T06:08:53.798Z,10.93
2023-01-02T06:18:55.428Z,12.20
2023-01-02T06:28:57.769Z,14.03
2023-01-02T06:38:59.611Z,14.83
2023-01-02T06:49:01.234Z,16.03
2023-01-02T06:59:02.867Z,16.40
2023-01-02T07:09:04.457Z,16.70
2023-01-02T07:19:06.073Z,13.27
2023-01-02T07:29:07.842Z,11.80
2023-01-02T07:39:09.731Z,14.03
2023-01-02T07:49:12.632Z,11.27
2023-01-02T07:59:14.296Z,11.87
2023-01-02T08:09:15.893Z,12.30
2023-01-02T08:19:17.522Z,18.10
2023-01-02T08:29:19.357Z,16.17
2023-01-02T08:39:20.959Z,14.93
2023-01-02T08:49:22.572Z,12.67
2023-01-02T08:59:25.521Z,12.90
2023-01-02T09:09:27.241Z,7.60
2023-01-02T09:19:29.754Z,13.27
2023-01-02T09:29:31.367Z,8.33
2023-01-02T09:39:33.133Z,15.60
2023-01-02T09:49:46.329Z,8.43
2023-01-02T10:00:11.498Z,9.00
2023-01-02T10:10:27.715Z,10.37
2023-01-02T10:20:44.693Z,7.97
2023-01-02T10:30:55.633Z,13.87
2023-01-02T10:40:57.424Z,5.07
2023-01-02T10:51:04.652Z,11.33
2023-01-02T11:01:13.944Z,14.33
2023-01-02T11:11:17.933Z,8.83
2023-01-02T11:21:33.070Z,6.47
2023-01-02T11:31:35.306Z,7.43
2023-01-02T11:42:13.370Z,5.07
2023-01-02T11:52:18.865Z,9.70
2023-01-02T12:02:38.655Z,10.50
2023-01-02T12:13:10.146Z,9.57
2023-01-02T12:23:36.599Z,19.27
2023-01-02T12:34:07.677Z,8.43
2023-01-02T12:44:21.183Z,11.10
2023-01-02T12:54:31.977Z,9.97
2023-01-02T13:04:38.136Z,7.20
2023-01-02T13:14:52.605Z,9.90
2023-01-02T13:24:56.932Z,8.43
2023-01-02T13:35:02.637Z,9.20
2023-01-02T13:45:14.474Z,13.63
2023-01-02T13:55:21.029Z,12.17
2023-01-02T14:05:57.017Z,8.97
2023-01-02T14:16:27.856Z,9.97
2023-01-02T14:26:34.654Z,14.43
2023-01-02T14:36:44.099Z,18.40
2023-01-02T14:46:46.050Z,9.30
2023-01-02T14:56:52.277Z,5.93
2023-01-02T15:07:19.464Z,7.00
2023-01-02T15:17:23.875Z,5.47
2023-01-02T15:27:30.082Z,6.50
2023-01-02T15:37:31.772Z,4.63
2023-01-02T15:47:33.499Z,7.50
2023-01-02T15:57:46.626Z,7.83
2023-01-02T16:07:51.025Z,5.27
2023-01-02T16:17:54.941Z,5.53
2023-01-02T16:28:35.354Z,6.90
2023-01-02T16:38:29.279Z,9.77
2023-01-02T16:48:31.977Z,11.07
2023-01-02T16:58:33.602Z,16.97
2023-01-02T17:08:35.265Z,8.47
2023-01-02T17:18:36.972Z,14.37
2023-01-02T17:28:38.678Z,9.13
2023-01-02T17:38:40.328Z,8.73
2023-01-02T17:48:42.497Z,5.57
2023-01-02T17:58:44.273Z,3.30
2023-01-02T18:08:46.536Z,2.10
2023-01-02T18:18:50.367Z,3.93
2023-01-02T18:29:02.796Z,2.30
2023-01-02T18:39:22.793Z,0.83
2023-01-02T18:49:28.737Z,0.90
2023-01-02T18:59:32.934Z,1.03
2023-01-02T19:09:36.318Z,1.43
2023-01-02T19:19:40.775Z,1.47
2023-01-02T19:29:48.623Z,1.50
2023-01-02T19:39:53.208Z,1.03
2023-01-02T19:49:55.310Z,1.60
2023-01-02T19:59:58.938Z,2.50
2023-01-02T20:10:00.579Z,1.13
2023-01-02T20:20:03.011Z,1.20
2023-01-02T20:30:07.032Z,1.07
2023-01-02T20:40:09.478Z,0.80
2023-01-02T20:50:11.150Z,1.10
2023-01-02T21:00:13.555Z,1.00
2023-01-02T21:10:15.295Z,1.40
2023-01-02T21:20:17.093Z,1.27
2023-01-02T21:30:18.889Z,1.20
2023-01-02T21:40:20.628Z,2.13
2023-01-02T21:50:22.941Z,1.40
2023-01-02T22:00:26.729Z,1.30
2023-01-02T22:10:28.406Z,1.83
2023-01-02T22:20:30.056Z,2.27
2023-01-02T22:30:34.992Z,1.30
2023-01-02T22:40:37.037Z,1.67
2023-01-02T22:50:44.476Z,2.00
2023-01-02T23:00:49.297Z,1.47
2023-01-02T23:10:50.951Z,1.30
2023-01-02T23:20:52.602Z,1.70
2023-01-02T23:30:54.416Z,3.17
2023-01-02T23:40:56.019Z,1.40
2023-01-02T23:51:02.241Z,3.37
